MacAlister, Canada
Current Conditions -  °F | °C
As of 11:00 AM on Monday 20 Oct 2014 (Local Time) from CYWL Reporting Station
Broken Clouds Broken Clouds  
Wind Chill: 54°   Ceiling: 7000
Heat Index: 54°   Visibility: 15mi
Dew Point: 41°   Wind: 8mph
Humidity: 62%   Direction: 130°SE
Pressure: 29.59"   Gusts: NA
Location:  52.45°N, 122.4°W
Report Text: CYWL 201800Z 13007KT 15SM FEW035 BKN070 BKN120 BKN200 12/05 A2959 RMK CU1AC5AC1CI1 CU TR SLP022 DENSITY ALT 3800FT
Loading
Personal Weather Stations






























Interactive Weather Map New forecast layout! Learn more

10-Day Weather Forecast

Advertisements
Track Severe Weather on mobile